Time,TemperatureF,DewpointF,PressureIn,WindDirection,WindDirectionDegrees,WindSpeedMPH,WindSpeedGustMPH,Humidity,HourlyPrecipIn,Conditions,Clouds,dailyrainin,SolarRadiationWatts/m^2,SoftwareType,DateUTC
2013-05-03 00:11:00,56.2,23.0,30.13,West,278,4.0,-999.0,28,-99.99,,,0.00,0,weatherlink.com 1.10,2013-05-03 07:11:00,
2013-05-03 00:26:00,56.5,24.0,30.13,West,277,4.0,-999.0,28,-99.99,,,0.00,0,weatherlink.com 1.10,2013-05-03 07:26:00,
2013-05-03 00:41:00,56.0,24.0,30.12,West,277,4.0,-999.0,29,-99.99,,,0.00,0,weatherlink.com 1.10,2013-05-03 07:41:00,
2013-05-03 00:56:00,55.9,25.0,30.12,West,277,4.0,-999.0,30,-99.99,,,0.00,0,weatherlink.com 1.10,2013-05-03 07:56:00,
2013-05-03 01:11:00,54.5,24.0,30.11,WSW,246,5.0,-999.0,31,-99.99,,,0.00,0,weatherlink.com 1.10,2013-05-03 08:11:00,
2013-05-03 01:26:00,52.1,24.0,30.11,SW,233,6.0,-999.0,34,-99.99,,,0.00,0,weatherlink.com 1.10,2013-05-03 08:26:00,
2013-05-03 01:41:00,52.0,25.0,30.11,WSW,241,3.0,-999.0,35,-99.99,,,0.00,0,weatherlink.com 1.10,2013-05-03 08:41:00,
2013-05-03 01:56:00,51.4,25.0,30.10,SW,223,8.0,-999.0,36,-99.99,,,0.00,0,weatherlink.com 1.10,2013-05-03 08:56:00,
2013-05-03 02:11:00,50.9,26.0,30.09,SW,225,5.0,-999.0,38,-99.99,,,0.00,0,weatherlink.com 1.10,2013-05-03 09:11:00,
2013-05-03 02:26:00,52.3,26.0,30.09,SW,226,8.0,-999.0,36,-99.99,,,0.00,0,weatherlink.com 1.10,2013-05-03 09:26:00,
2013-05-03 02:41:00,50.6,26.0,30.08,SSW,212,6.0,-999.0,38,-99.99,,,0.00,0,weatherlink.com 1.10,2013-05-03 09:41:00,
2013-05-03 02:56:00,50.8,26.0,30.08,SW,215,5.0,-999.0,38,-99.99,,,0.00,0,weatherlink.com 1.10,2013-05-03 09:56:00,
2013-05-03 03:11:00,54.7,26.0,30.08,SW,215,4.0,-999.0,33,-99.99,,,0.00,0,weatherlink.com 1.10,2013-05-03 10:11:00,
2013-05-03 03:26:00,54.2,25.0,30.08,SW,215,5.0,-999.0,33,-99.99,,,0.00,0,weatherlink.com 1.10,2013-05-03 10:26:00,
2013-05-03 03:41:00,53.4,25.0,30.09,SW,217,5.0,-999.0,34,-99.99,,,0.00,0,weatherlink.com 1.10,2013-05-03 10:41:00,
2013-05-03 03:56:00,52.7,26.0,30.09,SW,217,2.0,-999.0,35,-99.99,,,0.00,0,weatherlink.com 1.10,2013-05-03 10:56:00,
2013-05-03 04:11:00,54.6,25.0,30.09,SW,217,2.0,-999.0,32,-99.99,,,0.00,0,weatherlink.com 1.10,2013-05-03 11:11:00,
2013-05-03 04:26:00,53.1,25.0,30.09,SW,217,3.0,-999.0,33,-99.99,,,0.00,0,weatherlink.com 1.10,2013-05-03 11:26:00,
2013-05-03 04:41:00,52.4,25.0,30.09,SW,221,3.0,-999.0,34,-99.99,,,0.00,0,weatherlink.com 1.10,2013-05-03 11:41:00,
2013-05-03 04:56:00,51.5,25.0,30.09,West,278,5.0,-999.0,35,-99.99,,,0.00,0,weatherlink.com 1.10,2013-05-03 11:56:00,
2013-05-03 05:11:00,51.0,25.0,30.09,WNW,286,5.0,-999.0,36,-99.99,,,0.00,0,weatherlink.com 1.10,2013-05-03 12:11:00,
2013-05-03 05:26:00,50.9,25.0,30.09,WNW,284,4.0,-999.0,36,-99.99,,,0.00,0,weatherlink.com 1.10,2013-05-03 12:26:00,
2013-05-03 05:41:00,51.0,25.0,30.08,West,269,5.0,-999.0,36,-99.99,,,0.00,0,weatherlink.com 1.10,2013-05-03 12:41:00,
2013-05-03 05:56:00,50.3,25.0,30.08,West,259,5.0,-999.0,38,-99.99,,,0.00,0,weatherlink.com 1.10,2013-05-03 12:56:00,
2013-05-03 06:11:00,51.4,26.0,30.09,West,259,3.0,-999.0,38,-99.99,,,0.00,19,weatherlink.com 1.10,2013-05-03 13:11:00,
2013-05-03 06:26:00,52.1,26.0,30.08,West,259,1.0,-999.0,37,-99.99,,,0.00,49,weatherlink.com 1.10,2013-05-03 13:26:00,
2013-05-03 06:41:00,52.8,28.0,30.08,West,259,1.0,-999.0,38,-99.99,,,0.00,95,weatherlink.com 1.10,2013-05-03 13:41:00,
2013-05-03 06:56:00,52.8,28.0,30.08,West,259,0.0,-999.0,38,-99.99,,,0.00,151,weatherlink.com 1.10,2013-05-03 13:56:00,
2013-05-03 07:11:00,52.5,28.0,30.08,West,259,3.0,-999.0,39,-99.99,,,0.00,199,weatherlink.com 1.10,2013-05-03 14:11:00,
2013-05-03 07:26:00,53.3,29.0,30.08,West,259,2.0,-999.0,39,-99.99,,,0.00,250,weatherlink.com 1.10,2013-05-03 14:26:00,
2013-05-03 07:41:00,54.5,30.0,30.09,West,259,1.0,-999.0,40,-99.99,,,0.00,297,weatherlink.com 1.10,2013-05-03 14:41:00,
2013-05-03 07:56:00,56.3,31.0,30.08,West,259,0.0,-999.0,39,-99.99,,,0.00,348,weatherlink.com 1.10,2013-05-03 14:56:00,
2013-05-03 08:11:00,58.4,32.0,30.09,WNW,296,1.0,-999.0,37,-99.99,,,0.00,397,weatherlink.com 1.10,2013-05-03 15:11:00,
2013-05-03 08:26:00,58.4,31.0,30.09,NNW,336,7.0,-999.0,35,-99.99,,,0.00,446,weatherlink.com 1.10,2013-05-03 15:26:00,
2013-05-03 08:41:00,58.0,30.0,30.09,NNE,13,2.0,-999.0,35,-99.99,,,0.00,492,weatherlink.com 1.10,2013-05-03 15:41:00,
2013-05-03 08:56:00,58.6,32.0,30.08,NNW,331,4.0,-999.0,36,-99.99,,,0.00,540,weatherlink.com 1.10,2013-05-03 15:56:00,
2013-05-03 09:11:00,60.0,30.0,30.08,NNE,15,5.0,-999.0,32,-99.99,,,0.00,585,weatherlink.com 1.10,2013-05-03 16:11:00,
2013-05-03 09:26:00,60.5,32.0,30.07,NNW,342,2.0,-999.0,34,-99.99,,,0.00,626,weatherlink.com 1.10,2013-05-03 16:26:00,
2013-05-03 09:41:00,61.3,29.0,30.07,NNE,26,8.0,-999.0,30,-99.99,,,0.00,670,weatherlink.com 1.10,2013-05-03 16:41:00,
2013-05-03 09:56:00,61.2,31.0,30.07,North,350,9.0,-999.0,32,-99.99,,,0.00,707,weatherlink.com 1.10,2013-05-03 16:56:00,
2013-05-03 10:11:00,61.5,29.0,30.07,North,360,13.0,-999.0,29,-99.99,,,0.00,744,weatherlink.com 1.10,2013-05-03 17:11:00,
2013-05-03 10:26:00,61.9,28.0,30.07,NNE,32,1.0,-999.0,28,-99.99,,,0.00,775,weatherlink.com 1.10,2013-05-03 17:26:00,
2013-05-03 10:41:00,61.8,29.0,30.08,North,355,9.0,-999.0,29,-99.99,,,0.00,810,weatherlink.com 1.10,2013-05-03 17:41:00,
2013-05-03 10:56:00,61.5,29.0,30.08,North,350,4.0,-999.0,29,-99.99,,,0.00,838,weatherlink.com 1.10,2013-05-03 17:56:00,
2013-05-03 11:11:00,61.6,30.0,30.08,NE,35,9.0,-999.0,30,-99.99,,,0.00,860,weatherlink.com 1.10,2013-05-03 18:11:00,
2013-05-03 11:26:00,61.9,30.0,30.08,North,355,6.0,-999.0,30,-99.99,,,0.00,884,weatherlink.com 1.10,2013-05-03 18:26:00,
2013-05-03 11:41:00,63.6,31.0,30.08,North,11,9.0,-999.0,29,-99.99,,,0.00,905,weatherlink.com 1.10,2013-05-03 18:41:00,
2013-05-03 11:56:00,63.2,30.0,30.08,NNE,24,3.0,-999.0,29,-99.99,,,0.00,919,weatherlink.com 1.10,2013-05-03 18:56:00,
2013-05-03 12:11:00,63.0,28.0,30.08,NNW,333,8.0,-999.0,27,-99.99,,,0.00,933,weatherlink.com 1.10,2013-05-03 19:11:00,
2013-05-03 12:26:00,64.1,30.0,30.07,North,360,4.0,-999.0,28,-99.99,,,0.00,939,weatherlink.com 1.10,2013-05-03 19:26:00,
2013-05-03 12:41:00,64.2,30.0,30.07,NNE,20,9.0,-999.0,28,-99.99,,,0.00,942,weatherlink.com 1.10,2013-05-03 19:41:00,
2013-05-03 12:56:00,65.4,30.0,30.07,NNE,32,18.0,-999.0,27,-99.99,,,0.00,946,weatherlink.com 1.10,2013-05-03 19:56:00,
2013-05-03 13:12:00,65.2,28.0,30.06,NE,53,11.0,-999.0,25,-99.99,,,0.00,946,weatherlink.com 1.10,2013-05-03 20:12:00,
2013-05-03 13:26:00,65.4,25.0,30.06,NE,53,5.0,-999.0,22,-99.99,,,0.00,947,weatherlink.com 1.10,2013-05-03 20:26:00,
2013-05-03 13:41:00,65.7,27.0,30.05,NNE,16,6.0,-999.0,23,-99.99,,,0.00,933,weatherlink.com 1.10,2013-05-03 20:41:00,
2013-05-03 13:56:00,66.1,27.0,30.05,NNW,348,14.0,-999.0,23,-99.99,,,0.00,916,weatherlink.com 1.10,2013-05-03 20:56:00,
2013-05-03 14:11:00,67.0,29.0,30.05,NNE,26,3.0,-999.0,24,-99.99,,,0.00,898,weatherlink.com 1.10,2013-05-03 21:11:00,
2013-05-03 14:26:00,67.0,29.0,30.04,NNE,21,1.0,-999.0,24,-99.99,,,0.00,879,weatherlink.com 1.10,2013-05-03 21:26:00,
2013-05-03 14:41:00,67.4,30.0,30.04,North,355,7.0,-999.0,25,-99.99,,,0.00,863,weatherlink.com 1.10,2013-05-03 21:41:00,
2013-05-03 14:57:00,67.4,31.0,30.04,North,5,8.0,-999.0,26,-99.99,,,0.00,831,weatherlink.com 1.10,2013-05-03 21:57:00,
2013-05-03 15:11:00,67.4,30.0,30.03,NW,307,11.0,-999.0,25,-99.99,,,0.00,802,weatherlink.com 1.10,2013-05-03 22:11:00,
2013-05-03 15:26:00,67.2,30.0,30.03,North,5,8.0,-999.0,25,-99.99,,,0.00,775,weatherlink.com 1.10,2013-05-03 22:26:00,
2013-05-03 15:41:00,68.6,27.0,30.02,North,5,7.0,-999.0,21,-99.99,,,0.00,744,weatherlink.com 1.10,2013-05-03 22:41:00,
2013-05-03 15:57:00,68.3,28.0,30.01,NE,53,5.0,-999.0,22,-99.99,,,0.00,701,weatherlink.com 1.10,2013-05-03 22:57:00,
2013-05-03 16:11:00,68.0,30.0,30.01,NNE,23,3.0,-999.0,24,-99.99,,,0.00,664,weatherlink.com 1.10,2013-05-03 23:11:00,
2013-05-03 16:27:00,67.9,26.0,30.01,NNW,347,11.0,-999.0,21,-99.99,,,0.00,622,weatherlink.com 1.10,2013-05-03 23:27:00,
2013-05-03 16:41:00,67.9,28.0,30.01,NE,46,6.0,-999.0,22,-99.99,,,0.00,577,weatherlink.com 1.10,2013-05-03 23:41:00,
2013-05-03 16:56:00,68.5,28.0,30.01,NNW,344,15.0,-999.0,22,-99.99,,,0.00,533,weatherlink.com 1.10,2013-05-03 23:56:00,
2013-05-03 17:12:00,67.7,26.0,30.01,North,9,11.0,-999.0,21,-99.99,,,0.00,485,weatherlink.com 1.10,2013-05-04 00:12:00,
2013-05-03 17:27:00,67.5,29.0,30.01,NNE,13,8.0,-999.0,24,-99.99,,,0.00,441,weatherlink.com 1.10,2013-05-04 00:27:00,
2013-05-03 17:42:00,67.6,30.0,30.01,NE,56,5.0,-999.0,25,-99.99,,,0.00,390,weatherlink.com 1.10,2013-05-04 00:42:00,
2013-05-03 17:57:00,67.2,31.0,30.01,NE,40,3.0,-999.0,26,-99.99,,,0.00,341,weatherlink.com 1.10,2013-05-04 00:57:00,
2013-05-03 18:12:00,66.7,32.0,30.01,ENE,74,6.0,-999.0,27,-99.99,,,0.00,287,weatherlink.com 1.10,2013-05-04 01:12:00,
2013-05-03 18:27:00,66.4,31.0,30.01,NNE,31,7.0,-999.0,27,-99.99,,,0.00,232,weatherlink.com 1.10,2013-05-04 01:27:00,
2013-05-03 18:42:00,65.8,31.0,30.01,NE,53,4.0,-999.0,27,-99.99,,,0.00,176,weatherlink.com 1.10,2013-05-04 01:42:00,
2013-05-03 18:57:00,65.6,30.0,30.01,NE,40,7.0,-999.0,26,-99.99,,,0.00,121,weatherlink.com 1.10,2013-05-04 01:57:00,
2013-05-03 19:12:00,64.6,31.0,30.00,North,360,6.0,-999.0,28,-99.99,,,0.00,76,weatherlink.com 1.10,2013-05-04 02:12:00,
2013-05-03 19:27:00,64.1,28.0,30.00,NE,36,2.0,-999.0,26,-99.99,,,0.00,35,weatherlink.com 1.10,2013-05-04 02:27:00,
2013-05-03 19:42:00,63.1,27.0,30.00,NE,39,7.0,-999.0,26,-99.99,,,0.00,19,weatherlink.com 1.10,2013-05-04 02:42:00,
2013-05-03 19:57:00,62.0,29.0,30.00,NNE,28,3.0,-999.0,29,-99.99,,,0.00,12,weatherlink.com 1.10,2013-05-04 02:57:00,
2013-05-03 20:12:00,61.0,30.0,30.00,NNE,22,4.0,-999.0,31,-99.99,,,0.00,5,weatherlink.com 1.10,2013-05-04 03:12:00,
2013-05-03 20:27:00,59.8,30.0,30.00,NNE,19,0.0,-999.0,33,-99.99,,,0.00,0,weatherlink.com 1.10,2013-05-04 03:27:00,
2013-05-03 20:42:00,59.0,30.0,30.00,NNE,22,0.0,-999.0,34,-99.99,,,0.00,0,weatherlink.com 1.10,2013-05-04 03:42:00,
2013-05-03 20:57:00,58.3,31.0,30.00,NNE,22,1.0,-999.0,35,-99.99,,,0.00,0,weatherlink.com 1.10,2013-05-04 03:57:00,
2013-05-03 21:12:00,57.3,30.0,30.00,NNE,18,2.0,-999.0,36,-99.99,,,0.00,0,weatherlink.com 1.10,2013-05-04 04:12:00,
2013-05-03 21:27:00,57.8,30.0,30.01,North,360,4.0,-999.0,35,-99.99,,,0.00,0,weatherlink.com 1.10,2013-05-04 04:27:00,
2013-05-03 21:42:00,56.9,30.0,30.01,North,355,2.0,-999.0,36,-99.99,,,0.00,0,weatherlink.com 1.10,2013-05-04 04:42:00,
2013-05-03 21:57:00,56.0,30.0,30.01,NW,310,5.0,-999.0,37,-99.99,,,0.00,0,weatherlink.com 1.10,2013-05-04 04:57:00,
2013-05-03 22:12:00,56.0,30.0,30.02,NW,309,4.0,-999.0,37,-99.99,,,0.00,0,weatherlink.com 1.10,2013-05-04 05:12:00,
2013-05-03 22:27:00,55.9,30.0,30.02,NW,311,2.0,-999.0,38,-99.99,,,0.00,0,weatherlink.com 1.10,2013-05-04 05:27:00,
2013-05-03 22:42:00,55.2,30.0,30.02,NW,312,4.0,-999.0,38,-99.99,,,0.00,0,weatherlink.com 1.10,2013-05-04 05:42:00,
2013-05-03 22:57:00,54.9,30.0,30.02,NW,313,3.0,-999.0,39,-99.99,,,0.00,0,weatherlink.com 1.10,2013-05-04 05:57:00,
2013-05-03 23:12:00,54.4,30.0,30.02,NW,307,4.0,-999.0,39,-99.99,,,0.00,0,weatherlink.com 1.10,2013-05-04 06:12:00,
2013-05-03 23:27:00,53.3,29.0,30.02,WNW,299,4.0,-999.0,40,-99.99,,,0.00,0,weatherlink.com 1.10,2013-05-04 06:27:00,
2013-05-03 23:42:00,53.5,30.0,30.02,WNW,293,6.0,-999.0,40,-99.99,,,0.00,0,weatherlink.com 1.10,2013-05-04 06:42:00,
2013-05-03 23:57:00,53.9,29.0,30.02,WNW,292,6.0,-999.0,39,-99.99,,,0.00,0,weatherlink.com 1.10,2013-05-04 06:57:00,